Time;durP1;ratioP1;P1;durP2;ratioP2;P2;SDS_P1;SDS_P2;PMS_P1;PMS_P2;Temp;Humidity;BMP_temperature;BMP_pressure;BME280_temperature;BME280_humidity;BME280_pressure;Samples;Min_cycle;Max_cycle;Signal;HPM_P1;HPM_P2
2021/05/30 00:00:37;;;;;;;4.45;2.80;;;;;;;9.97;72.13;99305.59;6097046;23;20476;-82
2021/05/30 00:03:03;;;;;;;5.90;3.25;;;;;;;9.99;72.58;99307.16;6069071;23;20022;-81
2021/05/30 00:05:29;;;;;;;4.95;3.35;;;;;;;9.97;72.07;99311.00;6093894;23;20018;-80
2021/05/30 00:07:56;;;;;;;7.05;3.10;;;;;;;9.79;72.90;99300.19;6092448;23;20081;-80
2021/05/30 00:10:22;;;;;;;5.53;3.15;;;;;;;9.78;72.26;99307.47;6068930;23;20302;-80
2021/05/30 00:12:49;;;;;;;4.35;3.03;;;;;;;9.74;72.49;99314.16;6096279;23;20032;-79
2021/05/30 00:15:15;;;;;;;4.70;3.20;;;;;;;9.77;72.83;99324.66;6098211;23;20133;-81
2021/05/30 00:17:41;;;;;;;8.13;3.20;;;;;;;9.86;72.72;99329.13;6095176;23;20026;-81
2021/05/30 00:20:10;;;;;;;5.32;3.40;;;;;;;9.86;73.15;99323.72;6070265;23;20048;-82
2021/05/30 00:22:36;;;;;;;7.35;3.17;;;;;;;9.88;73.25;99319.03;6071417;23;20038;-82
2021/05/30 00:25:03;;;;;;;5.90;3.47;;;;;;;9.90;73.48;99322.41;6073342;23;20025;-82
2021/05/30 00:27:29;;;;;;;6.10;3.05;;;;;;;9.87;72.30;99338.94;6097492;23;20425;-81
2021/05/30 00:29:55;;;;;;;3.92;2.95;;;;;;;9.84;72.69;99336.53;6070934;23;20031;-79
2021/05/30 00:32:21;;;;;;;4.18;2.85;;;;;;;9.69;72.71;99340.78;6067978;23;20097;-79
2021/05/30 00:34:47;;;;;;;4.55;2.80;;;;;;;9.61;72.71;99343.38;6046878;23;20045;-80
2021/05/30 00:37:13;;;;;;;7.70;2.90;;;;;;;9.61;72.31;99333.44;6106068;23;20030;-80
2021/05/30 00:39:39;;;;;;;7.85;2.90;;;;;;;9.61;73.03;99343.38;6074042;23;20015;-80
2021/05/30 00:42:05;;;;;;;4.82;2.80;;;;;;;9.61;71.44;99341.53;6105296;23;20074;-81
2021/05/30 00:44:31;;;;;;;6.80;3.15;;;;;;;9.47;71.80;99342.06;6071620;23;20026;-81
2021/05/30 00:46:58;;;;;;;6.55;3.30;;;;;;;9.54;71.72;99342.28;6043901;23;20022;-82
2021/05/30 00:49:25;;;;;;;5.07;3.30;;;;;;;9.61;71.30;99337.97;6094213;23;20039;-81
2021/05/30 00:51:52;;;;;;;8.27;2.92;;;;;;;9.59;70.83;99345.41;6067792;23;20038;-80
2021/05/30 00:54:18;;;;;;;4.80;3.10;;;;;;;9.50;70.77;99336.34;6096268;23;20018;-81
2021/05/30 00:56:44;;;;;;;5.38;2.90;;;;;;;9.44;70.47;99336.13;6094252;23;20479;-81
2021/05/30 00:59:10;;;;;;;5.57;3.20;;;;;;;9.47;71.12;99341.19;6069406;23;20112;-82
2021/05/30 01:01:36;;;;;;;4.65;3.05;;;;;;;9.54;70.84;99353.97;6044398;23;20022;-81
2021/05/30 01:04:03;;;;;;;7.75;3.33;;;;;;;9.50;70.71;99347.13;6068867;23;20488;-80
2021/05/30 01:06:29;;;;;;;5.30;2.95;;;;;;;9.42;70.30;99345.19;6093974;23;20037;-79
2021/05/30 01:08:55;;;;;;;5.93;2.75;;;;;;;9.29;70.36;99350.13;6068974;23;20033;-80
2021/05/30 01:11:28;;;;;;;6.07;2.80;;;;;;;9.29;70.46;99355.53;6070510;23;20054;-81
2021/05/30 01:13:55;;;;;;;4.78;2.60;;;;;;;9.28;70.01;99345.72;6095903;23;20030;-79
2021/05/30 01:16:22;;;;;;;5.40;2.50;;;;;;;9.16;70.11;99360.41;6068716;23;20045;-79
2021/05/30 01:18:52;;;;;;;4.00;2.83;;;;;;;9.19;69.89;99354.72;6068854;23;20022;-79
2021/05/30 01:21:19;;;;;;;11.32;3.45;;;;;;;9.31;70.11;99361.59;6045015;23;20022;-81
2021/05/30 01:23:44;;;;;;;5.00;2.58;;;;;;;9.28;69.51;99356.50;6071593;23;20027;-81
2021/05/30 01:26:12;;;;;;;4.00;2.90;;;;;;;9.25;69.66;99356.81;6069114;23;20018;-80
2021/05/30 01:28:38;;;;;;;3.28;2.63;;;;;;;9.08;69.40;99365.69;6095797;23;20053;-83
2021/05/30 01:31:04;;;;;;;4.35;3.08;;;;;;;9.23;69.86;99369.59;6092907;23;20090;-80
2021/05/30 01:33:30;;;;;;;7.85;3.03;;;;;;;9.27;69.68;99356.66;6068053;23;20027;-80
2021/05/30 01:35:56;;;;;;;7.40;3.17;;;;;;;9.08;69.78;99357.63;6093674;23;20026;-79
2021/05/30 01:38:22;;;;;;;3.53;2.50;;;;;;;9.18;70.11;99371.91;6093937;23;20029;-82
2021/05/30 01:40:47;;;;;;;6.55;3.08;;;;;;;9.18;69.82;99366.50;6068375;23;20022;-80
2021/05/30 01:43:13;;;;;;;4.95;3.13;;;;;;;9.15;69.73;99364.97;6095943;23;20045;-80
2021/05/30 01:45:40;;;;;;;8.45;3.25;;;;;;;9.22;69.13;99367.06;6069258;23;20449;-80
2021/05/30 01:48:07;;;;;;;5.10;2.90;;;;;;;9.14;69.25;99357.88;6021793;23;20460;-80
2021/05/30 01:50:34;;;;;;;6.38;3.28;;;;;;;9.16;69.70;99365.81;6069678;23;20026;-78
2021/05/30 01:53:06;;;;;;;5.25;3.13;;;;;;;9.21;70.44;99360.78;6094771;23;20026;-80
2021/05/30 01:58:19;;;;;;;6.78;2.95;;;;;;;9.21;69.51;99368.03;6082981;23;20090;-79
2021/05/30 02:00:46;;;;;;;4.10;2.80;;;;;;;9.17;69.35;99367.50;6082563;23;20033;-82
2021/05/30 02:03:13;;;;;;;3.97;2.70;;;;;;;9.25;69.20;99364.91;6108815;23;20041;-81
2021/05/30 02:05:45;;;;;;;3.65;2.88;;;;;;;9.09;69.15;99372.78;6060341;23;20457;-79
2021/05/30 02:08:11;;;;;;;8.25;3.38;;;;;;;9.08;69.16;99384.56;6109857;23;20132;-81
2021/05/30 02:10:40;;;;;;;5.78;2.97;;;;;;;9.10;69.28;99382.56;6097416;23;20094;-80
2021/05/30 02:13:07;;;;;;;4.30;3.20;;;;;;;9.10;69.43;99387.97;6045044;23;20085;-82
2021/05/30 02:15:33;;;;;;;5.20;2.75;;;;;;;9.01;70.19;99388.88;6074347;23;20022;-79
2021/05/30 02:18:00;;;;;;;4.25;2.92;;;;;;;9.03;69.77;99392.25;6094796;23;20046;-80
2021/05/30 02:20:31;;;;;;;3.50;2.80;;;;;;;8.99;69.58;99391.69;6092565;23;20030;-81
2021/05/30 02:22:57;;;;;;;3.75;2.75;;;;;;;9.06;69.79;99392.78;6067453;23;20026;-81
2021/05/30 02:25:23;;;;;;;4.72;2.60;;;;;;;9.05;69.37;99384.88;6092874;23;20517;-80
2021/05/30 02:27:51;;;;;;;7.40;3.70;;;;;;;9.12;69.71;99391.38;6067490;23;20085;-78
2021/05/30 02:30:17;;;;;;;5.28;2.85;;;;;;;9.10;68.96;99393.34;6019803;23;20448;-81
2021/05/30 02:32:43;;;;;;;4.75;3.00;;;;;;;9.17;68.98;99394.47;5996133;23;20121;-79
2021/05/30 02:35:09;;;;;;;6.15;2.70;;;;;;;9.17;69.28;99394.47;6095574;23;20203;-79
2021/05/30 02:37:35;;;;;;;3.83;2.58;;;;;;;9.13;69.27;99404.69;6103016;23;20026;-79
2021/05/30 02:40:01;;;;;;;5.47;2.85;;;;;;;9.22;68.61;99397.56;6097992;23;20395;-81
2021/05/30 02:42:52;;;;;;;4.57;2.97;;;;;;;9.19;68.87;99411.34;6101498;23;20022;-81
2021/05/30 02:45:24;;;;;;;4.18;2.50;;;;;;;9.28;69.12;99417.69;6075062;23;20037;-80
2021/05/30 02:47:54;;;;;;;3.90;2.75;;;;;;;9.23;68.88;99415.44;6068065;23;20022;-80
2021/05/30 02:50:20;;;;;;;6.35;2.95;;;;;;;9.35;68.72;99425.03;6092826;23;20404;-81
2021/05/30 02:52:46;;;;;;;3.55;2.85;;;;;;;9.31;68.54;99417.41;6043631;23;20121;-83
2021/05/30 02:55:21;;;;;;;9.60;2.95;;;;;;;9.34;67.96;99426.06;6071004;23;20018;-80
2021/05/30 02:57:47;;;;;;;5.10;2.97;;;;;;;9.27;68.07;99424.94;6094608;23;20048;-81
2021/05/30 03:00:13;;;;;;;4.47;2.63;;;;;;;9.26;68.36;99425.94;6094697;23;20341;-83
2021/05/30 03:02:39;;;;;;;4.88;2.85;;;;;;;9.29;69.15;99428.34;6045458;23;20102;-83
2021/05/30 03:05:16;;;;;;;5.68;2.78;;;;;;;9.29;68.46;99436.44;6064380;23;20022;-80
2021/05/30 03:07:50;;;;;;;4.90;2.60;;;;;;;9.23;68.65;99442.41;6088317;23;20029;-81
2021/05/30 03:10:16;;;;;;;4.30;2.80;;;;;;;9.31;68.17;99439.81;6100051;23;20620;-81
2021/05/30 03:12:42;;;;;;;10.13;4.10;;;;;;;9.37;68.45;99438.41;6093600;23;20085;-81
2021/05/30 03:15:21;;;;;;;6.97;2.75;;;;;;;9.37;67.60;99441.94;6100755;23;20018;-79
2021/05/30 03:17:47;;;;;;;4.47;2.58;;;;;;;9.29;67.59;99436.44;6098819;23;20058;-79
2021/05/30 03:20:17;;;;;;;7.60;2.83;;;;;;;9.39;67.75;99431.84;6099197;23;20021;-81
2021/05/30 03:22:42;;;;;;;4.40;2.75;;;;;;;9.26;67.87;99439.44;6097110;23;20022;-82
2021/05/30 03:25:09;;;;;;;6.82;2.67;;;;;;;9.41;67.16;99440.66;6067025;23;20028;-79
2021/05/30 03:27:37;;;;;;;5.10;2.55;;;;;;;9.48;66.86;99431.97;6070255;23;20113;-79
2021/05/30 03:30:14;;;;;;;4.65;2.80;;;;;;;9.49;67.83;99442.59;6050119;23;20087;-81
2021/05/30 03:32:40;;;;;;;3.60;2.90;;;;;;;9.50;67.25;99444.28;6092157;23;20048;-80
2021/05/30 03:35:06;;;;;;;7.97;2.67;;;;;;;9.63;66.33;99443.94;6067818;23;20169;-79
2021/05/30 03:37:32;;;;;;;4.60;2.70;;;;;;;9.61;66.55;99448.63;6093749;23;20018;-80
2021/05/30 03:40:02;;;;;;;8.18;2.97;;;;;;;9.52;65.98;99452.25;6092909;23;20070;-80
2021/05/30 03:42:30;;;;;;;5.05;2.75;;;;;;;9.32;66.44;99438.81;6043911;23;20026;-80
2021/05/30 03:44:57;;;;;;;7.25;2.85;;;;;;;9.50;66.64;99448.84;6092967;23;20022;-82
2021/05/30 03:47:24;;;;;;;4.28;2.60;;;;;;;9.52;66.58;99447.69;6070528;23;20471;-82
2021/05/30 03:49:51;;;;;;;5.65;2.63;;;;;;;9.56;66.03;99448.25;6045472;23;20030;-83
2021/05/30 03:52:18;;;;;;;5.75;2.88;;;;;;;9.48;66.23;99448.16;6096690;23;20030;-83
2021/05/30 03:54:44;;;;;;;6.68;2.80;;;;;;;9.46;66.02;99447.44;6047340;23;20022;-82
2021/05/30 03:57:10;;;;;;;7.10;2.92;;;;;;;9.54;65.75;99440.31;6068152;23;20037;-82
2021/05/30 03:59:37;;;;;;;4.05;2.35;;;;;;;9.49;65.58;99460.63;6068679;23;20034;-81
2021/05/30 04:02:04;;;;;;;4.47;2.70;;;;;;;9.25;66.64;99450.34;6043927;23;20094;-82
2021/05/30 04:04:30;;;;;;;3.85;2.50;;;;;;;9.37;66.71;99455.44;6092270;23;20174;-80
2021/05/30 04:06:56;;;;;;;3.97;2.53;;;;;;;9.77;65.77;99461.50;6092985;23;20030;-81
2021/05/30 04:09:22;;;;;;;4.97;2.53;;;;;;;9.64;65.34;99451.03;6092959;23;20111;-82
2021/05/30 04:11:48;;;;;;;5.03;2.63;;;;;;;9.94;65.48;99451.72;6092584;23;20452;-80
2021/05/30 04:14:14;;;;;;;5.88;2.75;;;;;;;9.73;65.56;99444.75;6092344;23;20428;-81
2021/05/30 04:16:40;;;;;;;3.42;2.67;;;;;;;9.72;65.42;99445.72;6066782;23;20082;-80
2021/05/30 04:19:06;;;;;;;7.35;3.58;;;;;;;9.84;65.15;99446.41;6067676;23;20115;-81
2021/05/30 04:21:32;;;;;;;3.75;3.05;;;;;;;9.97;64.90;99443.31;6042780;23;20393;-80
2021/05/30 04:23:58;;;;;;;5.25;2.83;;;;;;;9.88;64.69;99447.78;6043588;23;20204;-81
2021/05/30 04:26:26;;;;;;;7.65;3.40;;;;;;;9.90;64.69;99435.81;6094257;23;20018;-82
2021/05/30 04:28:51;;;;;;;3.72;2.70;;;;;;;9.99;64.13;99449.44;6067333;23;20022;-82
2021/05/30 04:31:17;;;;;;;4.00;2.53;;;;;;;9.76;64.89;99449.84;6067198;23;20360;-82
2021/05/30 04:33:43;;;;;;;6.13;2.75;;;;;;;9.95;64.59;99459.69;6042481;23;20022;-80
2021/05/30 04:36:09;;;;;;;3.75;2.60;;;;;;;10.13;64.71;99457.84;6092919;23;20033;-82
2021/05/30 04:38:35;;;;;;;3.75;2.75;;;;;;;10.44;63.58;99459.34;6094128;23;20022;-80
2021/05/30 04:41:01;;;;;;;3.88;2.60;;;;;;;10.24;64.04;99454.06;6041705;23;20071;-81
2021/05/30 04:43:27;;;;;;;4.15;2.83;;;;;;;10.14;64.23;99456.00;6066584;23;20037;-79
2021/05/30 04:45:52;;;;;;;3.30;2.60;;;;;;;10.07;64.35;99471.09;6092335;23;20046;-81
2021/05/30 04:48:19;;;;;;;7.28;2.83;;;;;;;10.13;64.23;99475.91;6043427;23;20085;-80
2021/05/30 04:51:05;;;;;;;7.65;3.55;;;;;;;10.17;64.79;99474.59;6023417;23;20073;-81
2021/05/30 04:53:41;;;;;;;4.97;2.60;;;;;;;10.35;64.08;99483.59;6095516;23;20073;-81
2021/05/30 04:56:08;;;;;;;5.63;2.75;;;;;;;10.19;64.35;99490.63;6046168;23;20471;-81
2021/05/30 04:58:34;;;;;;;4.25;2.60;;;;;;;10.01;64.72;99486.06;6046166;23;20065;-81
2021/05/30 05:01:04;;;;;;;4.30;3.03;;;;;;;9.81;65.15;99485.34;6096049;23;20053;-82
2021/05/30 05:03:32;;;;;;;4.38;2.72;;;;;;;9.96;64.88;99474.03;6096610;23;20457;-82
2021/05/30 05:05:58;;;;;;;3.75;2.70;;;;;;;9.80;65.65;99489.03;6094932;23;20046;-80
2021/05/30 05:08:24;;;;;;;4.15;2.60;;;;;;;10.09;64.56;99490.69;6045617;23;20480;-81
2021/05/30 05:10:51;;;;;;;4.45;2.78;;;;;;;10.27;64.51;99490.75;6094081;23;20044;-84
2021/05/30 05:13:18;;;;;;;4.40;2.80;;;;;;;10.04;64.63;99479.50;6094376;23;20109;-81
2021/05/30 05:15:45;;;;;;;5.95;2.80;;;;;;;10.19;64.54;99491.50;6094227;23;20066;-81
2021/05/30 05:18:19;;;;;;;3.05;2.60;;;;;;;10.24;64.58;99491.91;6068372;23;20069;-84
2021/05/30 05:20:46;;;;;;;4.60;2.58;;;;;;;10.24;65.14;99494.59;6072796;23;20137;-81
2021/05/30 05:23:16;;;;;;;3.70;2.65;;;;;;;10.16;64.37;99478.28;6026888;23;20449;-84
2021/05/30 05:25:45;;;;;;;5.35;2.78;;;;;;;10.36;64.02;99498.78;6085250;23;20018;-84
2021/05/30 05:28:11;;;;;;;6.68;3.60;;;;;;;10.49;63.79;99484.03;6075740;23;20029;-81
2021/05/30 05:30:37;;;;;;;5.15;2.95;;;;;;;10.26;64.35;99484.50;6098618;23;20022;-81
2021/05/30 05:33:03;;;;;;;5.07;2.95;;;;;;;10.49;63.66;99495.69;6052929;23;20067;-81
2021/05/30 05:35:29;;;;;;;9.82;3.25;;;;;;;10.30;64.17;99491.28;6076332;23;20034;-80
2021/05/30 05:38:01;;;;;;;5.07;3.00;;;;;;;10.42;64.40;99501.88;6053102;23;20162;-83
2021/05/30 05:40:29;;;;;;;4.43;2.80;;;;;;;10.45;63.47;99504.28;6058641;23;20022;-82
2021/05/30 05:42:56;;;;;;;4.07;3.10;;;;;;;10.54;63.24;99503.38;6083683;23;20179;-81
2021/05/30 05:45:23;;;;;;;8.20;3.63;;;;;;;10.36;63.60;99501.50;6023375;23;20022;-81
2021/05/30 05:47:52;;;;;;;5.20;2.80;;;;;;;10.58;63.88;99505.59;6049391;23;20023;-82
2021/05/30 05:50:21;;;;;;;10.25;3.38;;;;;;;10.37;63.30;99508.59;6060465;23;20042;-84
2021/05/30 05:52:48;;;;;;;4.80;2.55;;;;;;;10.39;63.00;99503.06;6033931;23;20121;-85
2021/05/30 05:55:15;;;;;;;4.95;2.97;;;;;;;10.68;62.04;99513.63;6081456;23;20025;-83
2021/05/30 05:57:43;;;;;;;5.03;2.75;;;;;;;10.57;62.93;99516.56;6074662;23;20023;-83
2021/05/30 06:00:14;;;;;;;8.40;2.97;;;;;;;10.69;62.64;99511.78;5999347;23;20015;-84
2021/05/30 06:02:42;;;;;;;8.35;3.17;;;;;;;10.72;62.78;99512.31;6002950;23;20037;-81
2021/05/30 06:05:09;;;;;;;4.18;2.97;;;;;;;10.80;62.89;99515.09;6030803;23;20030;-86
2021/05/30 06:07:38;;;;;;;12.18;3.03;;;;;;;10.93;62.48;99530.03;6003314;23;20046;-84
2021/05/30 06:10:05;;;;;;;8.15;2.85;;;;;;;10.93;62.22;99530.91;6050193;23;20053;-85
2021/05/30 06:12:31;;;;;;;6.25;3.33;;;;;;;10.61;63.33;99523.38;6079370;23;20099;-85
2021/05/30 06:14:57;;;;;;;12.52;4.60;;;;;;;10.78;63.63;99530.59;6054529;23;20073;-83
2021/05/30 06:17:26;;;;;;;6.50;3.00;;;;;;;11.02;62.71;99529.97;6062309;23;20018;-84
2021/05/30 06:19:55;;;;;;;4.13;3.47;;;;;;;10.92;61.88;99533.78;6039523;23;20501;-82
2021/05/30 06:22:22;;;;;;;4.78;3.15;;;;;;;10.91;62.60;99542.91;6025428;23;20030;-81
2021/05/30 06:24:48;;;;;;;14.85;10.75;;;;;;;10.60;62.50;99535.16;6047416;23;20110;-84
2021/05/30 06:27:15;;;;;;;4.50;3.20;;;;;;;10.09;63.43;99532.09;6073596;23;20019;-84
2021/05/30 06:29:41;;;;;;;4.07;2.67;;;;;;;10.30;63.71;99539.09;6051686;23;20030;-84
2021/05/30 06:32:07;;;;;;;6.38;3.00;;;;;;;10.27;63.26;99551.03;6073445;23;20110;-82
2021/05/30 06:34:33;;;;;;;4.45;3.05;;;;;;;10.43;63.06;99550.38;6025021;23;20026;-82
2021/05/30 06:36:59;;;;;;;4.72;3.20;;;;;;;10.43;63.37;99546.84;6048282;23;20023;-84
2021/05/30 06:39:26;;;;;;;7.63;3.22;;;;;;;10.82;62.00;99555.47;6027302;23;20030;-85
2021/05/30 06:41:52;;;;;;;4.35;3.13;;;;;;;10.71;62.31;99553.84;6047336;23;20019;-81
2021/05/30 06:44:18;;;;;;;5.20;3.10;;;;;;;10.82;62.37;99563.59;6046647;23;20035;-85
2021/05/30 06:46:45;;;;;;;5.63;3.50;;;;;;;10.86;62.45;99559.59;6022142;23;20516;-84
2021/05/30 06:49:11;;;;;;;6.80;3.40;;;;;;;10.83;62.39;99563.44;6073900;23;20046;-84
2021/05/30 06:51:38;;;;;;;10.95;3.20;;;;;;;10.68;63.30;99570.41;6052282;23;20050;-86
2021/05/30 06:54:05;;;;;;;5.05;3.03;;;;;;;10.78;62.99;99565.75;6080508;23;20023;-83
2021/05/30 06:56:33;;;;;;;5.55;3.10;;;;;;;10.71;63.12;99572.78;6047180;23;20087;-85
2021/05/30 06:59:00;;;;;;;4.57;2.75;;;;;;;10.43;63.68;99563.06;6027973;23;20433;-82
2021/05/30 07:01:26;;;;;;;7.18;2.90;;;;;;;10.33;63.73;99572.06;6006383;23;20053;-85
2021/05/30 07:03:52;;;;;;;7.88;2.83;;;;;;;10.13;63.55;99575.84;6050156;23;20049;-83
2021/05/30 07:06:19;;;;;;;10.38;3.75;;;;;;;10.31;63.71;99574.06;5997994;23;20015;-84
2021/05/30 07:08:45;;;;;;;4.32;2.90;;;;;;;10.37;63.57;99588.81;6052381;23;20098;-85
2021/05/30 07:11:12;;;;;;;12.68;4.20;;;;;;;10.44;63.61;99595.31;6048958;23;20014;-86
2021/05/30 07:13:39;;;;;;;8.30;3.30;;;;;;;10.26;63.74;99595.28;6074579;23;20071;-83
2021/05/30 07:16:06;;;;;;;6.05;2.80;;;;;;;10.30;63.47;99593.13;6027915;23;20504;-83
2021/05/30 07:18:36;;;;;;;4.82;2.95;;;;;;;10.19;63.66;99596.84;6053705;23;20027;-85
2021/05/30 07:21:02;;;;;;;6.00;3.72;;;;;;;10.36;63.48;99598.78;6005643;23;20364;-84
2021/05/30 07:23:30;;;;;;;3.65;2.65;;;;;;;10.39;63.62;99597.63;6029284;23;20018;-84
2021/05/30 07:25:57;;;;;;;5.93;3.17;;;;;;;10.31;63.94;99601.09;5981794;23;20031;-84
2021/05/30 07:28:23;;;;;;;5.25;3.05;;;;;;;10.25;63.89;99606.22;6027775;23;20025;-84
2021/05/30 07:30:50;;;;;;;4.15;3.10;;;;;;;10.32;64.00;99608.19;6051796;23;20030;-84
2021/05/30 07:33:17;;;;;;;7.32;3.33;;;;;;;10.34;63.93;99616.13;6026678;23;20038;-81
2021/05/30 07:35:43;;;;;;;5.80;3.00;;;;;;;10.43;64.19;99609.84;6076240;23;20019;-83
2021/05/30 07:38:10;;;;;;;6.80;2.90;;;;;;;10.61;64.02;99604.47;6053424;23;20021;-84
2021/05/30 07:40:36;;;;;;;5.68;3.97;;;;;;;10.28;64.38;99612.19;6025907;23;20027;-83
2021/05/30 07:43:03;;;;;;;3.47;3.10;;;;;;;10.23;64.45;99614.44;6001253;23;20019;-83
2021/05/30 07:45:31;;;;;;;6.35;3.53;;;;;;;10.31;64.47;99617.31;6073197;23;20029;-85
2021/05/30 07:47:59;;;;;;;4.50;2.90;;;;;;;10.27;64.59;99605.06;6046719;23;20027;-83
2021/05/30 07:50:25;;;;;;;5.82;3.33;;;;;;;10.49;64.06;99619.19;6000823;23;20055;-82
2021/05/30 07:52:57;;;;;;;9.57;4.25;;;;;;;10.56;63.46;99622.97;6001965;23;20018;-84
2021/05/30 07:55:26;;;;;;;5.93;3.35;;;;;;;10.94;63.22;99618.31;6048243;23;20066;-85
2021/05/30 07:57:52;;;;;;;5.72;2.80;;;;;;;10.96;62.11;99622.56;6026539;23;20034;-85
2021/05/30 08:00:20;;;;;;;4.78;3.22;;;;;;;10.74;62.93;99607.63;6052837;23;20003;-86
2021/05/30 08:02:47;;;;;;;4.50;3.40;;;;;;;10.96;62.55;99619.00;6056446;23;20027;-85
2021/05/30 08:05:18;;;;;;;6.78;3.10;;;;;;;10.80;62.91;99617.84;6007465;23;20026;-84
2021/05/30 08:07:45;;;;;;;5.28;3.13;;;;;;;11.05;61.63;99632.47;6008232;23;20086;-84
2021/05/30 08:10:21;;;;;;;3.55;3.03;;;;;;;10.88;62.02;99624.34;6057327;23;20029;-83
2021/05/30 08:12:48;;;;;;;4.80;2.78;;;;;;;10.73;62.82;99624.88;6009586;23;20051;-83
2021/05/30 08:15:14;;;;;;;8.48;3.17;;;;;;;11.07;62.39;99629.59;6003088;23;20022;-83
2021/05/30 08:17:41;;;;;;;4.20;2.92;;;;;;;11.33;61.64;99635.94;6046872;23;20471;-83
2021/05/30 08:20:08;;;;;;;4.20;3.08;;;;;;;11.21;61.86;99631.75;6025098;23;20110;-84
2021/05/30 08:22:34;;;;;;;4.20;3.33;;;;;;;11.46;61.91;99640.06;6024360;23;20030;-84
2021/05/30 08:25:01;;;;;;;5.38;2.85;;;;;;;11.53;61.03;99641.16;6048127;23;20097;-82
2021/05/30 08:27:27;;;;;;;7.65;3.10;;;;;;;11.59;60.11;99645.94;6001176;23;20029;-83
2021/05/30 08:29:53;;;;;;;5.40;2.90;;;;;;;11.31;60.71;99643.34;6047294;23;20019;-82
2021/05/30 08:32:21;;;;;;;6.38;3.10;;;;;;;11.67;60.74;99651.41;6072503;23;20042;-83
2021/05/30 08:34:47;;;;;;;11.23;4.35;;;;;;;11.89;59.96;99641.09;6051154;23;20029;-83
2021/05/30 08:37:14;;;;;;;6.63;3.58;;;;;;;12.27;59.90;99639.75;6075256;23;20046;-85
2021/05/30 08:39:40;;;;;;;3.58;3.17;;;;;;;12.79;58.28;99636.88;6075694;23;20023;-83
2021/05/30 08:42:07;;;;;;;4.60;3.72;;;;;;;12.92;57.13;99639.13;6006000;23;20034;-84
2021/05/30 08:44:33;;;;;;;5.43;3.42;;;;;;;13.61;55.79;99640.56;6083608;23;20019;-83
2021/05/30 08:47:01;;;;;;;8.93;2.88;;;;;;;13.73;54.29;99644.63;6058969;23;20049;-84
2021/05/30 08:49:27;;;;;;;8.10;3.55;;;;;;;14.27;53.60;99645.88;6077299;23;20027;-84
2021/05/30 08:51:53;;;;;;;10.18;5.65;;;;;;;15.02;52.19;99638.03;6075490;23;20030;-83
2021/05/30 08:54:20;;;;;;;5.85;3.53;;;;;;;15.60;50.57;99638.44;6024624;23;20022;-83
2021/05/30 08:56:51;;;;;;;4.57;2.63;;;;;;;15.32;50.93;99641.75;6073729;23;20023;-84
2021/05/30 08:59:30;;;;;;;5.38;3.40;;;;;;;15.69;50.02;99647.44;6002555;23;20026;-83
2021/05/30 09:01:58;;;;;;;13.75;3.60;;;;;;;15.78;50.23;99640.84;6074909;23;20026;-83
2021/05/30 09:04:34;;;;;;;4.50;2.97;;;;;;;15.89;49.04;99643.97;6047712;23;20038;-84
2021/05/30 09:07:01;;;;;;;7.03;3.10;;;;;;;15.72;49.70;99649.75;6032661;23;20027;-83
2021/05/30 09:09:36;;;;;;;5.93;2.83;;;;;;;15.34;50.62;99638.81;6033124;23;20019;-84
2021/05/30 09:12:04;;;;;;;4.30;2.45;;;;;;;15.02;51.14;99645.34;6030889;23;20074;-85
2021/05/30 09:14:40;;;;;;;7.28;2.78;;;;;;;15.45;50.22;99649.28;6056096;23;20161;-83
2021/05/30 09:17:09;;;;;;;6.88;4.10;;;;;;;17.38;46.01;99644.63;6006122;23;20014;-84
2021/05/30 09:19:37;;;;;;;8.75;3.92;;;;;;;18.52;43.07;99653.50;6034163;23;20018;-83
2021/05/30 09:22:15;;;;;;;4.40;3.60;;;;;;;19.30;41.30;99644.09;6052884;23;20058;-85
2021/05/30 09:24:59;;;;;;;7.68;3.90;;;;;;;20.30;38.83;99637.59;6033345;23;20023;-85
2021/05/30 09:27:27;;;;;;;7.32;3.60;;;;;;;20.93;37.47;99635.06;6054058;23;20033;-82
2021/05/30 09:30:19;;;;;;;5.10;2.95;;;;;;;20.77;39.70;99641.06;6051845;23;20529;-84
2021/05/30 09:33:01;;;;;;;3.97;2.38;;;;;;;19.42;41.08;99639.72;6052937;23;20063;-85
2021/05/30 09:35:46;;;;;;;7.68;2.63;;;;;;;19.02;42.35;99645.13;6052948;23;20046;-84
2021/05/30 09:38:15;;;;;;;4.63;2.40;;;;;;;18.41;43.26;99656.81;6052444;23;20027;-85
2021/05/30 09:40:43;;;;;;;6.20;2.40;;;;;;;18.40;42.92;99655.13;6029000;23;20023;-83
2021/05/30 09:43:14;;;;;;;6.53;3.60;;;;;;;19.13;41.52;99649.16;6057485;23;20413;-82
2021/05/30 09:45:42;;;;;;;6.38;4.00;;;;;;;20.02;39.37;99653.47;6055582;23;20051;-85
2021/05/30 09:48:20;;;;;;;5.03;3.58;;;;;;;21.22;35.49;99642.94;6032532;23;20018;-84
2021/05/30 09:51:07;;;;;;;10.10;3.58;;;;;;;20.69;36.73;99655.03;6009296;23;20064;-84
2021/05/30 09:53:43;;;;;;;6.05;3.58;;;;;;;20.50;37.53;99651.28;6016596;23;20049;-84
2021/05/30 09:56:39;;;;;;;5.70;3.17;;;;;;;21.22;36.72;99648.44;6059945;23;20027;-85
2021/05/30 09:59:09;;;;;;;3.92;3.40;;;;;;;22.52;34.34;99640.38;6029373;23;20023;-84
2021/05/30 10:01:59;;;;;;;5.45;3.65;;;;;;;22.52;34.16;99659.66;6016088;23;20038;-84
2021/05/30 10:04:31;;;;;;;13.30;2.50;;;;;;;20.95;36.18;99643.06;6035977;23;20367;-84
2021/05/30 10:07:00;;;;;;;24.63;3.20;;;;;;;20.39;36.17;99650.00;6036164;23;20027;-86
2021/05/30 10:09:31;;;;;;;4.03;2.20;;;;;;;21.11;34.36;99652.75;6032015;23;20030;-85
2021/05/30 10:11:59;;;;;;;3.88;2.25;;;;;;;20.31;36.30;99658.50;6055202;23;20038;-85
2021/05/30 10:14:37;;;;;;;6.18;1.80;;;;;;;19.48;36.37;99647.94;6057063;23;20030;-86
2021/05/30 10:17:07;;;;;;;4.85;2.65;;;;;;;19.45;37.18;99648.38;6053608;23;20019;-85
2021/05/30 10:19:39;;;;;;;6.07;3.10;;;;;;;21.10;34.69;99656.56;6076225;23;20036;-84
2021/05/30 10:22:07;;;;;;;6.60;2.97;;;;;;;20.27;35.32;99639.91;6057408;23;20167;-84
2021/05/30 10:24:39;;;;;;;4.60;2.10;;;;;;;21.00;34.84;99651.53;6029225;23;20007;-83
2021/05/30 10:27:23;;;;;;;5.22;2.10;;;;;;;20.61;35.86;99652.53;6055992;23;20035;-84
2021/05/30 10:30:29;;;;;;;6.72;2.75;;;;;;;21.03;33.91;99644.75;6059233;23;20038;-84
2021/05/30 10:33:15;;;;;;;9.98;2.50;;;;;;;21.50;33.63;99645.31;6033097;23;20054;-84
2021/05/30 10:35:47;;;;;;;6.50;2.75;;;;;;;21.52;34.58;99654.19;6046801;23;20038;-84
2021/05/30 10:38:36;;;;;;;6.00;2.00;;;;;;;21.09;34.62;99652.94;6025793;23;20046;-84
2021/05/30 10:41:20;;;;;;;1.48;1.38;;;;;;;20.15;34.52;99664.44;6051885;23;20023;-86
2021/05/30 10:43:47;;;;;;;4.13;1.70;;;;;;;20.11;34.46;99655.78;6002695;23;20026;-83
2021/05/30 10:46:23;;;;;;;13.02;2.50;;;;;;;19.75;35.63;99658.97;6076853;23;20426;-84
2021/05/30 10:49:06;;;;;;;7.10;1.88;;;;;;;19.36;36.08;99667.97;6075106;23;20081;-82
2021/05/30 10:51:57;;;;;;;;;;;;;;;;;;;;;
2021/05/30 10:54:33;;;;;;;3.63;1.55;;;;;;;17.91;37.27;99672.47;6055280;23;20047;-84
2021/05/30 10:56:59;;;;;;;12.15;2.08;;;;;;;17.80;38.22;99681.22;6011171;23;20078;-84
2021/05/30 10:59:26;;;;;;;6.07;2.10;;;;;;;17.84;37.57;99677.03;6079968;23;20018;-82
2021/05/30 11:01:54;;;;;;;5.47;2.35;;;;;;;18.43;37.62;99671.16;6057335;23;20122;-84
2021/05/30 11:04:29;;;;;;;4.88;2.33;;;;;;;18.62;37.25;99693.38;6057181;23;20019;-85
2021/05/30 11:07:06;;;;;;;4.40;2.47;;;;;;;19.01;36.65;99679.91;6035376;23;20113;-86
2021/05/30 11:10:04;;;;;;;8.38;2.10;;;;;;;18.83;37.06;99687.84;6050868;23;20019;-83
2021/05/30 11:12:32;;;;;;;3.50;2.38;;;;;;;19.42;36.61;99680.84;6015641;23;20027;-84
2021/05/30 11:15:07;;;;;;;7.78;1.77;;;;;;;19.02;36.24;99687.06;6082291;23;20035;-84
2021/05/30 11:17:39;;;;;;;6.60;2.40;;;;;;;19.28;35.56;99678.06;6034945;23;20037;-84
2021/05/30 11:20:14;;;;;;;10.75;2.17;;;;;;;19.32;35.04;99683.97;6033201;23;20080;-82
2021/05/30 11:22:46;;;;;;;5.45;1.88;;;;;;;18.60;36.67;99679.03;6080589;23;20033;-84
2021/05/30 11:25:15;;;;;;;8.70;2.10;;;;;;;18.28;35.95;99674.03;6033382;23;20023;-86
2021/05/30 11:27:48;;;;;;;8.15;3.10;;;;;;;18.20;35.88;99673.31;6059535;23;20078;-85
2021/05/30 11:33:04;;;;;;;8.63;2.72;;;;;;;19.91;35.15;99675.00;6023803;23;19922;-85
2021/05/30 11:35:32;;;;;;;4.80;2.92;;;;;;;20.76;33.50;99677.81;5930185;23;20023;-85
2021/05/30 11:37:59;;;;;;;11.73;3.60;;;;;;;21.31;32.72;99678.19;6018622;23;20046;-85
2021/05/30 11:40:28;;;;;;;4.78;3.08;;;;;;;21.51;31.73;99680.03;5972088;23;20054;-84
2021/05/30 11:42:57;;;;;;;4.88;2.42;;;;;;;21.78;31.95;99678.75;5976846;23;20080;-82
2021/05/30 11:45:35;;;;;;;10.75;3.85;;;;;;;21.34;32.06;99680.53;5972672;23;20494;-83
2021/05/30 11:48:06;;;;;;;3.85;2.55;;;;;;;21.66;31.40;99688.81;5970260;23;20043;-83
2021/05/30 11:50:34;;;;;;;3.78;3.20;;;;;;;21.96;31.91;99693.66;6023478;23;20012;-84